sensor_id;sensor_type;location;lat;lon;timestamp;pressure;altitude;pressure_sealevel;temperature;humidity
55038;BME280;40937;53.594;10.034;2022-09-01T00:02:00;78476.31;;;-147.20;52.54
55038;BME280;40937;53.594;10.034;2022-09-01T00:04:33;78472.28;;;-147.20;52.27
55038;BME280;40937;53.594;10.034;2022-09-01T00:07:01;78482.38;;;-147.20;52.57
55038;BME280;40937;53.594;10.034;2022-09-01T00:09:28;78484.41;;;-147.20;52.75
55038;BME280;40937;53.594;10.034;2022-09-01T00:11:55;78490.47;;;-147.20;53.00
55038;BME280;40937;53.594;10.034;2022-09-01T00:14:25;78488.44;;;-147.20;53.02
55038;BME280;40937;53.594;10.034;2022-09-01T00:16:52;78488.44;;;-147.20;52.97
55038;BME280;40937;53.594;10.034;2022-09-01T00:19:20;78484.41;;;-147.20;52.88
55038;BME280;40937;53.594;10.034;2022-09-01T00:21:47;78482.38;;;-147.20;52.92
55038;BME280;40937;53.594;10.034;2022-09-01T00:24:16;78484.41;;;-147.20;52.92
55038;BME280;40937;53.594;10.034;2022-09-01T00:26:44;78492.47;;;-147.20;53.42
55038;BME280;40937;53.594;10.034;2022-09-01T00:29:11;78488.44;;;-147.20;53.25
55038;BME280;40937;53.594;10.034;2022-09-01T00:31:40;78508.63;;;-147.20;53.38
55038;BME280;40937;53.594;10.034;2022-09-01T00:34:07;78514.69;;;-147.20;53.76
55038;BME280;40937;53.594;10.034;2022-09-01T00:36:34;78504.59;;;-147.20;53.76
55038;BME280;40937;53.594;10.034;2022-09-01T00:39:01;78506.63;;;-147.20;53.71
55038;BME280;40937;53.594;10.034;2022-09-01T00:41:31;78506.63;;;-147.20;53.74
55038;BME280;40937;53.594;10.034;2022-09-01T00:44:00;78516.72;;;-147.20;54.22
55038;BME280;40937;53.594;10.034;2022-09-01T00:46:28;78520.75;;;-147.20;53.91
55038;BME280;40937;53.594;10.034;2022-09-01T00:49:01;78522.78;;;-147.20;54.14
55038;BME280;40937;53.594;10.034;2022-09-01T00:51:29;78522.78;;;-147.20;54.30
55038;BME280;40937;53.594;10.034;2022-09-01T00:53:57;78526.81;;;-147.20;54.22
55038;BME280;40937;53.594;10.034;2022-09-01T00:56:24;78532.88;;;-147.20;54.32
55038;BME280;40937;53.594;10.034;2022-09-01T00:58:52;78528.84;;;-147.20;54.30
55038;BME280;40937;53.594;10.034;2022-09-01T01:01:19;78536.91;;;-147.20;54.63
55038;BME280;40937;53.594;10.034;2022-09-01T01:03:47;78532.88;;;-147.20;54.61
55038;BME280;40937;53.594;10.034;2022-09-01T01:06:16;78526.81;;;-147.20;54.44
55038;BME280;40937;53.594;10.034;2022-09-01T01:08:46;78526.81;;;-147.20;54.52
55038;BME280;40937;53.594;10.034;2022-09-01T01:11:24;78530.84;;;-147.20;54.70
55038;BME280;40937;53.594;10.034;2022-09-01T01:13:53;78526.81;;;-147.20;54.50
55038;BME280;40937;53.594;10.034;2022-09-01T01:16:23;78526.81;;;-147.20;54.39
55038;BME280;40937;53.594;10.034;2022-09-01T01:18:50;78522.78;;;-147.20;54.39
55038;BME280;40937;53.594;10.034;2022-09-01T01:21:21;78534.88;;;-147.20;54.61
55038;BME280;40937;53.594;10.034;2022-09-01T01:24:21;78534.88;;;-147.20;54.59
55038;BME280;40937;53.594;10.034;2022-09-01T01:26:49;78536.91;;;-147.20;54.59
55038;BME280;40937;53.594;10.034;2022-09-01T01:29:16;78536.91;;;-147.20;54.39
55038;BME280;40937;53.594;10.034;2022-09-01T01:31:44;78551.03;;;-147.20;54.88
55038;BME280;40937;53.594;10.034;2022-09-01T01:34:14;78551.03;;;-147.20;54.98
55038;BME280;40937;53.594;10.034;2022-09-01T01:36:43;78561.13;;;-147.20;55.03
55038;BME280;40937;53.594;10.034;2022-09-01T01:39:15;78557.09;;;-147.20;55.00
55038;BME280;40937;53.594;10.034;2022-09-01T01:41:45;78565.19;;;-147.20;55.02
55038;BME280;40937;53.594;10.034;2022-09-01T01:44:15;78561.13;;;-147.20;54.79
55038;BME280;40937;53.594;10.034;2022-09-01T01:46:45;78573.25;;;-147.20;55.19
55038;BME280;40937;53.594;10.034;2022-09-01T01:49:14;78573.25;;;-147.20;55.28
55038;BME280;40937;53.594;10.034;2022-09-01T01:51:43;78579.31;;;-147.20;55.38
55038;BME280;40937;53.594;10.034;2022-09-01T01:54:11;78581.34;;;-147.20;55.64
55038;BME280;40937;53.594;10.034;2022-09-01T01:56:39;78571.25;;;-147.20;55.55
55038;BME280;40937;53.594;10.034;2022-09-01T01:59:09;78583.34;;;-147.20;55.91
55038;BME280;40937;53.594;10.034;2022-09-01T02:01:42;78589.41;;;-147.20;56.19
55038;BME280;40937;53.594;10.034;2022-09-01T02:04:14;78591.44;;;-147.20;56.20
55038;BME280;40937;53.594;10.034;2022-09-01T02:06:43;78601.53;;;-147.20;56.21
55038;BME280;40937;53.594;10.034;2022-09-01T02:09:12;78599.50;;;-147.20;56.44
55038;BME280;40937;53.594;10.034;2022-09-01T02:11:39;78603.56;;;-147.20;56.59
55038;BME280;40937;53.594;10.034;2022-09-01T02:14:09;78609.59;;;-147.20;56.54
55038;BME280;40937;53.594;10.034;2022-09-01T02:16:39;78609.59;;;-147.20;56.79
55038;BME280;40937;53.594;10.034;2022-09-01T02:19:07;78607.59;;;-147.20;56.76
55038;BME280;40937;53.594;10.034;2022-09-01T02:21:37;78615.66;;;-147.20;56.98
55038;BME280;40937;53.594;10.034;2022-09-01T02:24:17;78611.63;;;-147.20;56.74
55038;BME280;40937;53.594;10.034;2022-09-01T02:26:44;78617.69;;;-147.20;57.01
55038;BME280;40937;53.594;10.034;2022-09-01T02:29:15;78621.72;;;-147.20;57.08
55038;BME280;40937;53.594;10.034;2022-09-01T02:31:45;78633.84;;;-147.20;57.43
55038;BME280;40937;53.594;10.034;2022-09-01T02:34:12;78637.88;;;-147.20;57.52
55038;BME280;40937;53.594;10.034;2022-09-01T02:36:40;78631.81;;;-147.20;57.53
55038;BME280;40937;53.594;10.034;2022-09-01T02:39:10;78631.81;;;-147.20;57.46
55038;BME280;40937;53.594;10.034;2022-09-01T02:41:37;78633.84;;;-147.20;57.70
55038;BME280;40937;53.594;10.034;2022-09-01T02:44:05;78631.81;;;-147.20;57.51
55038;BME280;40937;53.594;10.034;2022-09-01T02:46:38;78623.75;;;-147.20;57.45
55038;BME280;40937;53.594;10.034;2022-09-01T02:49:08;78631.81;;;-147.20;57.80
55038;BME280;40937;53.594;10.034;2022-09-01T02:51:40;78633.84;;;-147.20;57.73
55038;BME280;40937;53.594;10.034;2022-09-01T02:54:10;78639.91;;;-147.20;57.42
55038;BME280;40937;53.594;10.034;2022-09-01T02:56:42;78652.00;;;-147.20;57.53
55038;BME280;40937;53.594;10.034;2022-09-01T02:59:13;78662.09;;;-147.20;57.72
55038;BME280;40937;53.594;10.034;2022-09-01T03:01:41;78668.16;;;-147.20;58.00
55038;BME280;40937;53.594;10.034;2022-09-01T03:04:11;78676.25;;;-147.20;57.94
55038;BME280;40937;53.594;10.034;2022-09-01T03:06:37;78668.16;;;-147.20;57.98
55038;BME280;40937;53.594;10.034;2022-09-01T03:09:07;78682.31;;;-147.20;58.13
55038;BME280;40937;53.594;10.034;2022-09-01T03:11:36;78684.31;;;-147.20;58.10
55038;BME280;40937;53.594;10.034;2022-09-01T03:14:05;78686.34;;;-147.20;58.23
55038;BME280;40937;53.594;10.034;2022-09-01T03:16:33;78690.38;;;-147.20;58.05
55038;BME280;40937;53.594;10.034;2022-09-01T03:19:03;78702.50;;;-147.20;58.50
55038;BME280;40937;53.594;10.034;2022-09-01T03:21:34;78704.53;;;-147.20;58.76
55038;BME280;40937;53.594;10.034;2022-09-01T03:24:02;78716.63;;;-147.20;59.07
55038;BME280;40937;53.594;10.034;2022-09-01T03:26:29;78716.63;;;-147.20;59.14
55038;BME280;40937;53.594;10.034;2022-09-01T03:29:00;78728.75;;;-147.20;59.10
55038;BME280;40937;53.594;10.034;2022-09-01T03:31:28;78730.78;;;-147.20;59.29
55038;BME280;40937;53.594;10.034;2022-09-01T03:33:57;78726.72;;;-147.20;58.99
55038;BME280;40937;53.594;10.034;2022-09-01T03:36:30;78730.78;;;-147.20;59.17
55038;BME280;40937;53.594;10.034;2022-09-01T03:38:59;78728.75;;;-147.20;59.04
55038;BME280;40937;53.594;10.034;2022-09-01T03:41:30;78736.84;;;-147.20;59.56
55038;BME280;40937;53.594;10.034;2022-09-01T03:43:57;78726.72;;;-147.20;59.61
55038;BME280;40937;53.594;10.034;2022-09-01T03:46:27;78728.75;;;-147.20;59.75
55038;BME280;40937;53.594;10.034;2022-09-01T03:48:57;78726.72;;;-147.20;59.92
55038;BME280;40937;53.594;10.034;2022-09-01T03:51:30;78734.81;;;-147.20;59.98
55038;BME280;40937;53.594;10.034;2022-09-01T03:53:59;78730.78;;;-147.20;60.16
55038;BME280;40937;53.594;10.034;2022-09-01T03:56:27;78722.69;;;-147.20;60.22
55038;BME280;40937;53.594;10.034;2022-09-01T03:58:57;78728.75;;;-147.20;60.29
55038;BME280;40937;53.594;10.034;2022-09-01T04:01:25;78724.72;;;-147.20;60.21
55038;BME280;40937;53.594;10.034;2022-09-01T04:03:54;78720.66;;;-147.20;60.19
55038;BME280;40937;53.594;10.034;2022-09-01T04:06:30;78724.72;;;-147.20;60.17
55038;BME280;40937;53.594;10.034;2022-09-01T04:08:57;78720.66;;;-147.20;60.07
55038;BME280;40937;53.594;10.034;2022-09-01T04:11:28;78732.78;;;-147.20;60.03
55038;BME280;40937;53.594;10.034;2022-09-01T04:13:55;78744.91;;;-147.20;60.19
55038;BME280;40937;53.594;10.034;2022-09-01T04:16:24;78742.88;;;-147.20;60.10
55038;BME280;40937;53.594;10.034;2022-09-01T04:19:09;78750.97;;;-147.20;60.17
55038;BME280;40937;53.594;10.034;2022-09-01T04:21:46;78752.97;;;-147.20;60.16
55038;BME280;40937;53.594;10.034;2022-09-01T04:24:15;78759.03;;;-147.20;60.37
55038;BME280;40937;53.594;10.034;2022-09-01T04:26:44;78757.03;;;-147.20;60.46
55038;BME280;40937;53.594;10.034;2022-09-01T04:29:14;78771.16;;;-147.20;60.46
55038;BME280;40937;53.594;10.034;2022-09-01T04:31:44;78767.13;;;-147.20;60.65
55038;BME280;40937;53.594;10.034;2022-09-01T04:34:18;78777.22;;;-147.20;60.83
55038;BME280;40937;53.594;10.034;2022-09-01T04:36:49;78765.09;;;-147.20;60.56
55038;BME280;40937;53.594;10.034;2022-09-01T04:39:18;78775.19;;;-147.20;60.63
55038;BME280;40937;53.594;10.034;2022-09-01T04:41:45;78779.25;;;-147.20;60.91
55038;BME280;40937;53.594;10.034;2022-09-01T04:44:13;78781.25;;;-147.20;61.13
55038;BME280;40937;53.594;10.034;2022-09-01T04:46:42;78775.19;;;-147.20;60.79
55038;BME280;40937;53.594;10.034;2022-09-01T04:49:12;78783.28;;;-147.20;61.30
55038;BME280;40937;53.594;10.034;2022-09-01T04:51:46;78789.34;;;-147.20;61.29
55038;BME280;40937;53.594;10.034;2022-09-01T04:54:15;78791.34;;;-147.20;61.40
55038;BME280;40937;53.594;10.034;2022-09-01T04:56:46;78799.44;;;-147.20;61.68
55038;BME280;40937;53.594;10.034;2022-09-01T04:59:17;78789.34;;;-147.20;61.40
55038;BME280;40937;53.594;10.034;2022-09-01T05:01:49;78789.34;;;-147.20;61.46
55038;BME280;40937;53.594;10.034;2022-09-01T05:04:21;78785.28;;;-147.20;61.75
55038;BME280;40937;53.594;10.034;2022-09-01T05:06:50;78787.31;;;-147.20;61.60
55038;BME280;40937;53.594;10.034;2022-09-01T05:09:31;78789.34;;;-147.20;61.89
55038;BME280;40937;53.594;10.034;2022-09-01T05:12:08;78785.28;;;-147.20;61.97
55038;BME280;40937;53.594;10.034;2022-09-01T05:14:41;78781.25;;;-147.20;61.84
55038;BME280;40937;53.594;10.034;2022-09-01T05:17:09;78783.28;;;-147.20;61.83
55038;BME280;40937;53.594;10.034;2022-09-01T05:19:38;78777.22;;;-147.20;61.94
55038;BME280;40937;53.594;10.034;2022-09-01T05:22:06;78777.22;;;-147.20;61.90
55038;BME280;40937;53.594;10.034;2022-09-01T05:24:39;78767.13;;;-147.20;61.88
55038;BME280;40937;53.594;10.034;2022-09-01T05:27:07;78765.09;;;-147.20;61.78
55038;BME280;40937;53.594;10.034;2022-09-01T05:29:36;78765.09;;;-147.20;61.75
55038;BME280;40937;53.594;10.034;2022-09-01T05:32:06;78763.09;;;-147.20;62.13
55038;BME280;40937;53.594;10.034;2022-09-01T05:34:38;78759.03;;;-147.20;61.95
55038;BME280;40937;53.594;10.034;2022-09-01T05:37:09;78755.00;;;-147.20;61.88
55038;BME280;40937;53.594;10.034;2022-09-01T05:39:38;78744.91;;;-147.20;61.64
55038;BME280;40937;53.594;10.034;2022-09-01T05:42:06;78738.84;;;-147.20;61.58
55038;BME280;40937;53.594;10.034;2022-09-01T05:44:34;78728.75;;;-147.20;61.42
55038;BME280;40937;53.594;10.034;2022-09-01T05:47:02;78736.84;;;-147.20;61.75
55038;BME280;40937;53.594;10.034;2022-09-01T05:49:29;78738.84;;;-147.20;61.47
55038;BME280;40937;53.594;10.034;2022-09-01T05:51:59;78728.75;;;-147.20;61.55
55038;BME280;40937;53.594;10.034;2022-09-01T05:54:28;78722.69;;;-147.20;61.29
55038;BME280;40937;53.594;10.034;2022-09-01T05:56:58;78710.56;;;-147.20;60.94
55038;BME280;40937;53.594;10.034;2022-09-01T05:59:26;78706.53;;;-147.20;60.91
55038;BME280;40937;53.594;10.034;2022-09-01T06:02:06;78704.53;;;-147.20;61.11
55038;BME280;40937;53.594;10.034;2022-09-01T06:04:36;78704.53;;;-147.20;60.98
55038;BME280;40937;53.594;10.034;2022-09-01T06:07:06;78702.50;;;-147.20;60.96
55038;BME280;40937;53.594;10.034;2022-09-01T06:09:37;78692.41;;;-147.20;60.54
55038;BME280;40937;53.594;10.034;2022-09-01T06:12:06;78686.34;;;-147.20;60.71
55038;BME280;40937;53.594;10.034;2022-09-01T06:14:33;78680.28;;;-147.20;60.54
55038;BME280;40937;53.594;10.034;2022-09-01T06:17:00;78674.22;;;-147.20;60.32
55038;BME280;40937;53.594;10.034;2022-09-01T06:19:27;78660.09;;;-147.20;60.33
55038;BME280;40937;53.594;10.034;2022-09-01T06:21:54;78662.09;;;-147.20;59.90
55038;BME280;40937;53.594;10.034;2022-09-01T06:24:21;78652.00;;;-147.20;59.75
55038;BME280;40937;53.594;10.034;2022-09-01T06:26:51;78656.06;;;-147.20;59.89
55038;BME280;40937;53.594;10.034;2022-09-01T06:29:20;78645.97;;;-147.20;59.78
55038;BME280;40937;53.594;10.034;2022-09-01T06:31:49;78647.97;;;-147.20;59.76
55038;BME280;40937;53.594;10.034;2022-09-01T06:34:18;78641.91;;;-147.20;59.59
55038;BME280;40937;53.594;10.034;2022-09-01T06:36:46;78635.84;;;-147.20;59.29
55038;BME280;40937;53.594;10.034;2022-09-01T06:39:17;78623.75;;;-147.20;59.34
55038;BME280;40937;53.594;10.034;2022-09-01T06:41:48;78623.75;;;-147.20;59.19
55038;BME280;40937;53.594;10.034;2022-09-01T06:44:20;78613.66;;;-147.20;58.91
55038;BME280;40937;53.594;10.034;2022-09-01T06:46:55;78607.59;;;-147.20;58.81
55038;BME280;40937;53.594;10.034;2022-09-01T06:49:22;78593.44;;;-147.20;58.53
55038;BME280;40937;53.594;10.034;2022-09-01T06:51:58;78589.41;;;-147.20;58.08
55038;BME280;40937;53.594;10.034;2022-09-01T06:54:25;78585.38;;;-147.20;58.03
55038;BME280;40937;53.594;10.034;2022-09-01T06:56:54;78573.25;;;-147.20;57.81
55038;BME280;40937;53.594;10.034;2022-09-01T06:59:27;78561.13;;;-147.20;57.47
55038;BME280;40937;53.594;10.034;2022-09-01T07:01:54;78555.09;;;-147.20;57.46
55038;BME280;40937;53.594;10.034;2022-09-01T07:04:29;78542.97;;;-147.20;57.23
55038;BME280;40937;53.594;10.034;2022-09-01T07:07:01;78530.84;;;-147.20;56.59
55038;BME280;40937;53.594;10.034;2022-09-01T07:09:54;78518.72;;;-147.20;55.90
55038;BME280;40937;53.594;10.034;2022-09-01T07:12:27;78500.56;;;-147.20;55.54
55038;BME280;40937;53.594;10.034;2022-09-01T07:14:56;78496.53;;;-147.20;55.73
55038;BME280;40937;53.594;10.034;2022-09-01T07:17:24;78492.47;;;-147.20;55.11
55038;BME280;40937;53.594;10.034;2022-09-01T07:19:53;78482.38;;;-147.20;54.72
55038;BME280;40937;53.594;10.034;2022-09-01T07:22:21;78470.28;;;-147.20;54.21
55038;BME280;40937;53.594;10.034;2022-09-01T07:24:49;78458.16;;;-147.20;53.82
55038;BME280;40937;53.594;10.034;2022-09-01T07:27:33;78454.13;;;-147.20;53.67
55038;BME280;40937;53.594;10.034;2022-09-01T07:30:02;78439.97;;;-147.20;53.37
55038;BME280;40937;53.594;10.034;2022-09-01T07:32:29;78437.97;;;-147.20;52.92
55038;BME280;40937;53.594;10.034;2022-09-01T07:34:56;78425.84;;;-147.20;52.97
55038;BME280;40937;53.594;10.034;2022-09-01T07:37:23;78429.88;;;-147.20;53.16
55038;BME280;40937;53.594;10.034;2022-09-01T07:39:52;78415.75;;;-147.20;52.92
55038;BME280;40937;53.594;10.034;2022-09-01T07:42:41;78411.72;;;-147.20;52.33
55038;BME280;40937;53.594;10.034;2022-09-01T07:45:28;78401.63;;;-147.20;52.22
55038;BME280;40937;53.594;10.034;2022-09-01T07:48:01;78391.50;;;-147.20;51.62
55038;BME280;40937;53.594;10.034;2022-09-01T07:50:34;78379.41;;;-147.20;51.42
55038;BME280;40937;53.594;10.034;2022-09-01T07:53:01;78379.41;;;-147.20;51.24
55038;BME280;40937;53.594;10.034;2022-09-01T07:55:29;78363.25;;;-147.20;50.55
55038;BME280;40937;53.594;10.034;2022-09-01T07:57:58;78359.22;;;-147.20;49.99
55038;BME280;40937;53.594;10.034;2022-09-01T08:00:28;78343.06;;;-147.20;49.22
55038;BME280;40937;53.594;10.034;2022-09-01T08:03:01;78343.06;;;-147.20;48.89
55038;BME280;40937;53.594;10.034;2022-09-01T08:05:28;78326.91;;;-147.20;48.51
55038;BME280;40937;53.594;10.034;2022-09-01T08:07:55;78318.81;;;-147.20;48.41
55038;BME280;40937;53.594;10.034;2022-09-01T08:10:28;78310.75;;;-147.20;47.46
55038;BME280;40937;53.594;10.034;2022-09-01T08:12:55;78296.63;;;-147.20;46.03
55038;BME280;40937;53.594;10.034;2022-09-01T08:15:22;78298.63;;;-147.20;46.07
55038;BME280;40937;53.594;10.034;2022-09-01T08:17:51;78290.56;;;-147.20;44.86
55038;BME280;40937;53.594;10.034;2022-09-01T08:20:21;78278.44;;;-147.20;44.13
55038;BME280;40937;53.594;10.034;2022-09-01T08:22:50;78268.34;;;-147.20;43.03
55038;BME280;40937;53.594;10.034;2022-09-01T08:25:23;78270.38;;;-147.20;43.32
55038;BME280;40937;53.594;10.034;2022-09-01T08:34:41;78250.16;;;-147.20;42.58
55038;BME280;40937;53.594;10.034;2022-09-01T08:39:09;78242.09;;;-147.20;42.16
55038;BME280;40937;53.594;10.034;2022-09-01T08:41:30;78242.09;;;-147.20;41.98
55038;BME280;40937;53.594;10.034;2022-09-01T08:44:36;78229.97;;;-147.20;41.61
55038;BME280;40937;53.594;10.034;2022-09-01T08:47:09;78227.97;;;-147.20;41.35
55038;BME280;40937;53.594;10.034;2022-09-01T08:49:39;78215.84;;;-147.20;40.09
55038;BME280;40937;53.594;10.034;2022-09-01T08:52:27;78199.69;;;-147.20;40.18
55038;BME280;40937;53.594;10.034;2022-09-01T08:55:02;78205.75;;;-147.20;40.63
55038;BME280;40937;53.594;10.034;2022-09-01T08:57:33;78199.69;;;-147.20;40.80
55038;BME280;40937;53.594;10.034;2022-09-01T09:00:25;78189.59;;;-147.20;39.64
55038;BME280;40937;53.594;10.034;2022-09-01T09:03:06;78193.63;;;-147.20;39.50
55038;BME280;40937;53.594;10.034;2022-09-01T09:05:45;78177.47;;;-147.20;39.59
55038;BME280;40937;53.594;10.034;2022-09-01T09:11:09;78179.50;;;-147.20;39.26
55038;BME280;40937;53.594;10.034;2022-09-01T09:13:53;78173.44;;;-147.20;39.89
55038;BME280;40937;53.594;10.034;2022-09-01T09:16:26;78169.41;;;-147.20;40.64
55038;BME280;40937;53.594;10.034;2022-09-01T09:18:56;78159.31;;;-147.20;41.09
55038;BME280;40937;53.594;10.034;2022-09-01T09:21:31;78151.22;;;-147.20;41.38
55038;BME280;40937;53.594;10.034;2022-09-01T09:24:05;78143.16;;;-147.20;41.48
55038;BME280;40937;53.594;10.034;2022-09-01T09:26:34;78145.16;;;-147.20;41.79
55038;BME280;40937;53.594;10.034;2022-09-01T09:29:00;78147.19;;;-147.20;41.89
55038;BME280;40937;53.594;10.034;2022-09-01T09:31:29;78143.16;;;-147.20;42.02
55038;BME280;40937;53.594;10.034;2022-09-01T09:33:56;78116.91;;;-147.20;41.53
55038;BME280;40937;53.594;10.034;2022-09-01T09:36:31;78118.94;;;-147.20;41.73
55038;BME280;40937;53.594;10.034;2022-09-01T09:39:10;78112.88;;;-147.20;41.63
55038;BME280;40937;53.594;10.034;2022-09-01T09:41:38;78098.72;;;-147.20;40.33
55038;BME280;40937;53.594;10.034;2022-09-01T09:44:16;78098.72;;;-147.20;39.50
55038;BME280;40937;53.594;10.034;2022-09-01T09:46:45;78096.72;;;-147.20;39.34
55038;BME280;40937;53.594;10.034;2022-09-01T09:49:18;78094.69;;;-147.20;38.13
55038;BME280;40937;53.594;10.034;2022-09-01T09:51:49;78080.56;;;-147.20;37.12
55038;BME280;40937;53.594;10.034;2022-09-01T09:54:21;78074.50;;;-147.20;37.40
55038;BME280;40937;53.594;10.034;2022-09-01T09:57:03;78068.44;;;-147.20;37.46
55038;BME280;40937;53.594;10.034;2022-09-01T09:59:32;78076.53;;;-147.20;37.76
55038;BME280;40937;53.594;10.034;2022-09-01T10:02:15;78070.47;;;-147.20;37.27
55038;BME280;40937;53.594;10.034;2022-09-01T10:04:43;78060.38;;;-147.20;36.92
55038;BME280;40937;53.594;10.034;2022-09-01T10:07:25;78056.34;;;-147.20;37.23
55038;BME280;40937;53.594;10.034;2022-09-01T10:09:53;78048.25;;;-147.20;37.18
55038;BME280;40937;53.594;10.034;2022-09-01T10:12:22;78056.34;;;-147.20;36.89
55038;BME280;40937;53.594;10.034;2022-09-01T10:14:52;78048.25;;;-147.20;36.06
55038;BME280;40937;53.594;10.034;2022-09-01T10:17:27;78042.19;;;-147.20;36.27
55038;BME280;40937;53.594;10.034;2022-09-01T10:19:58;78052.28;;;-147.20;36.58
55038;BME280;40937;53.594;10.034;2022-09-01T10:22:29;78054.31;;;-147.20;36.47
55038;BME280;40937;53.594;10.034;2022-09-01T10:24:57;78044.22;;;-147.20;36.41
55038;BME280;40937;53.594;10.034;2022-09-01T10:27:28;78017.97;;;-147.20;36.06
55038;BME280;40937;53.594;10.034;2022-09-01T10:30:02;78001.81;;;-147.20;36.03
55038;BME280;40937;53.594;10.034;2022-09-01T10:32:33;78003.84;;;-147.20;36.38
55038;BME280;40937;53.594;10.034;2022-09-01T10:35:03;78001.81;;;-147.20;36.28
55038;BME280;40937;53.594;10.034;2022-09-01T10:37:32;77987.69;;;-147.20;36.05
55038;BME280;40937;53.594;10.034;2022-09-01T10:40:15;77967.50;;;-147.20;35.93
55038;BME280;40937;53.594;10.034;2022-09-01T10:42:45;77975.56;;;-147.20;35.95
55038;BME280;40937;53.594;10.034;2022-09-01T10:45:17;77969.50;;;-147.20;36.30
55038;BME280;40937;53.594;10.034;2022-09-01T10:47:46;77963.44;;;-147.20;36.37
55038;BME280;40937;53.594;10.034;2022-09-01T10:50:26;77941.25;;;-147.20;36.17
55038;BME280;40937;53.594;10.034;2022-09-01T10:53:05;77919.03;;;-147.20;35.93
55038;BME280;40937;53.594;10.034;2022-09-01T10:55:50;77904.91;;;-147.20;35.62
55038;BME280;40937;53.594;10.034;2022-09-01T10:58:34;77906.91;;;-147.20;35.53
55038;BME280;40937;53.594;10.034;2022-09-01T11:01:04;77908.94;;;-147.20;34.94
55038;BME280;40937;53.594;10.034;2022-09-01T11:03:50;77912.97;;;-147.20;35.21
55038;BME280;40937;53.594;10.034;2022-09-01T11:06:44;77919.03;;;-147.20;35.72
55038;BME280;40937;53.594;10.034;2022-09-01T11:09:21;77919.03;;;-147.20;36.31
55038;BME280;40937;53.594;10.034;2022-09-01T11:11:59;77910.97;;;-147.20;36.52
55038;BME280;40937;53.594;10.034;2022-09-01T11:14:30;77906.91;;;-147.20;36.95
55038;BME280;40937;53.594;10.034;2022-09-01T11:17:10;77910.97;;;-147.20;37.40
55038;BME280;40937;53.594;10.034;2022-09-01T11:19:39;77900.88;;;-147.20;37.22
55038;BME280;40937;53.594;10.034;2022-09-01T11:22:15;77886.72;;;-147.20;36.89
55038;BME280;40937;53.594;10.034;2022-09-01T11:24:50;77890.75;;;-147.20;37.00
55038;BME280;40937;53.594;10.034;2022-09-01T11:27:55;77876.63;;;-147.20;37.02
55038;BME280;40937;53.594;10.034;2022-09-01T11:30:32;77876.63;;;-147.20;37.18
55038;BME280;40937;53.594;10.034;2022-09-01T11:33:10;77860.47;;;-147.20;36.29
55038;BME280;40937;53.594;10.034;2022-09-01T11:35:39;77842.31;;;-147.20;35.94
55038;BME280;40937;53.594;10.034;2022-09-01T11:38:06;77836.25;;;-147.20;35.84
55038;BME280;40937;53.594;10.034;2022-09-01T11:40:35;77836.25;;;-147.20;35.95
55038;BME280;40937;53.594;10.034;2022-09-01T11:43:05;77826.16;;;-147.20;35.71
55038;BME280;40937;53.594;10.034;2022-09-01T11:45:35;77805.97;;;-147.20;35.21
55038;BME280;40937;53.594;10.034;2022-09-01T11:48:08;77801.94;;;-147.20;35.62
55038;BME280;40937;53.594;10.034;2022-09-01T11:50:37;77781.75;;;-147.20;35.54
55038;BME280;40937;53.594;10.034;2022-09-01T11:53:06;77787.78;;;-147.20;35.68
55038;BME280;40937;53.594;10.034;2022-09-01T11:55:37;77787.78;;;-147.20;35.27
55038;BME280;40937;53.594;10.034;2022-09-01T11:58:06;77777.69;;;-147.20;34.99
55038;BME280;40937;53.594;10.034;2022-09-01T12:00:37;77785.78;;;-147.20;35.20
55038;BME280;40937;53.594;10.034;2022-09-01T12:03:18;77781.75;;;-147.20;34.90
55038;BME280;40937;53.594;10.034;2022-09-01T12:05:45;77769.63;;;-147.20;34.94
55038;BME280;40937;53.594;10.034;2022-09-01T12:08:16;77775.69;;;-147.20;34.83
55038;BME280;40937;53.594;10.034;2022-09-01T12:10:45;77775.69;;;-147.20;34.93
55038;BME280;40937;53.594;10.034;2022-09-01T12:13:18;77775.69;;;-147.20;35.08
55038;BME280;40937;53.594;10.034;2022-09-01T12:15:52;77763.56;;;-147.20;34.63
55038;BME280;40937;53.594;10.034;2022-09-01T12:18:21;77773.66;;;-147.20;34.66
55038;BME280;40937;53.594;10.034;2022-09-01T12:20:50;77763.56;;;-147.20;34.75
55038;BME280;40937;53.594;10.034;2022-09-01T12:23:24;77737.31;;;-147.20;34.86
55038;BME280;40937;53.594;10.034;2022-09-01T12:25:54;77733.28;;;-147.20;34.99
55038;BME280;40937;53.594;10.034;2022-09-01T12:28:22;77719.16;;;-147.20;34.55
55038;BME280;40937;53.594;10.034;2022-09-01T12:30:49;77703.00;;;-147.20;34.54
55038;BME280;40937;53.594;10.034;2022-09-01T12:33:18;77696.94;;;-147.20;34.20
55038;BME280;40937;53.594;10.034;2022-09-01T12:35:45;77711.06;;;-147.20;34.53
55038;BME280;40937;53.594;10.034;2022-09-01T12:38:20;77719.16;;;-147.20;34.37
55038;BME280;40937;53.594;10.034;2022-09-01T12:40:49;77729.25;;;-147.20;34.58
55038;BME280;40937;53.594;10.034;2022-09-01T12:43:29;77731.25;;;-147.20;34.76
55038;BME280;40937;53.594;10.034;2022-09-01T12:45:56;77733.28;;;-147.20;34.52
55038;BME280;40937;53.594;10.034;2022-09-01T12:48:27;77727.22;;;-147.20;34.46
55038;BME280;40937;53.594;10.034;2022-09-01T12:50:56;77729.25;;;-147.20;34.27
55038;BME280;40937;53.594;10.034;2022-09-01T12:53:26;77735.31;;;-147.20;34.49
55038;BME280;40937;53.594;10.034;2022-09-01T12:56:14;77729.25;;;-147.20;34.20
55038;BME280;40937;53.594;10.034;2022-09-01T12:58:47;77739.34;;;-147.20;34.40
55038;BME280;40937;53.594;10.034;2022-09-01T13:01:26;77733.28;;;-147.20;34.46
55038;BME280;40937;53.594;10.034;2022-09-01T13:04:19;77729.25;;;-147.20;34.45